KLYH/LYH METAR and TAF weather

Enter ICAO airport designator
Station Type Date Time Source
KLYH METAR 2019/06/18 13:54 UTC NOAA

KLYH 181354Z VRB06KT 10SM CLR 26/21 A3002 RMK AO2 SLP155 T02560206


Station Type Date Time Source
KLYH Decoded METAR 2019/06/18 13:54 UTC NOAA

LYNCHBURG REGIONAL AIRPORT, VA, United States (KLYH) 37-19N 079-12W 295M
Jun 18, 2019 - 09:54 AM EDT / 2019.06.18 1354 UTC
Wind: Variable at 7 MPH (6 KT):0
Visibility: 10 mile(s):0
Sky conditions: clear
Temperature: 78.1 F (25.6 C)
Dew Point: 69.1 F (20.6 C)
Relative Humidity: 73%
Pressure (altimeter): 30.02 in. Hg (1016 hPa)
ob: KLYH 181354Z VRB06KT 10SM CLR 26/21 A3002 RMK AO2 SLP155 T02560206
cycle: 14

Station Type Date Time Source
KLYH TAF 2019/06/18 12:42 UTC NOAA

TAF KLYH 181140Z 1812/1912 20005KT P6SM BKN150
FM181700 22006KT P6SM VCTS BKN090CB
FM182100 22008KT 4SM TSRA OVC045CB
TEMPO 1822/1824 2SM +TSRA OVC025CB
FM190000 VRB03KT 4SM TSRA BR OVC040CB
FM190600 VRB03KT 5SM -SHRA OVC060

Example: see airport list